< Cyclone 201313 2013 Season Cyclone 201317 >
Cyclone 201314 (Tim)
General InformationDetailed Track InformationTrack Information on Google MapsList of All Images || ResourceGoogle EarthGE AnimationAtom FeedGeoJSON
Detalied Best Track Wind (Time Zone = UTC)
Year Month Day Hour Lat. Long. Wind (kt) Gust (kt) Direc. of Major Storm Axis Radius of Major Storm Axis (nm) Radius of Minor Storm Axis (nm) Direc. of Major Gale Axis Radius of Major Gale Axis (nm) Radius of Minor Gale Axis (nm) Image
2013 3 12 12 -11.6 140.2 20 45 symmetric - - symmetric - - Image
2013 3 12 18 -11.3 141.2 20 45 symmetric - - symmetric - - Image
2013 3 13 00 -11.4 143.4 25 45 symmetric - - symmetric - - Image
2013 3 13 06 -11.8 144.4 25 45 symmetric - - symmetric - - Image
2013 3 13 12 -12.0 146.2 25 45 symmetric - - symmetric - - Image
2013 3 13 18 -13.4 147.2 30 45 symmetric - - symmetric - - Image
2013 3 13 21 -13.8 147.9 35 50 symmetric - - symmetric - - Image
2013 3 14 00 -14.2 148.6 45 65 symmetric - - symmetric - - Image
2013 3 14 03 -14.6 149.2 50 70 symmetric - - symmetric - - Image
2013 3 14 06 -14.9 149.8 50 70 symmetric - - symmetric - - Image
2013 3 14 12 -15.1 151.3 50 70 symmetric - - symmetric - - Image
2013 3 14 18 -15.3 152.3 50 70 symmetric - - symmetric - - Image
2013 3 15 00 -15.6 153.3 50 70 symmetric - - symmetric - - Image
2013 3 15 06 -16.0 153.9 45 65 symmetric - - symmetric - - Image
2013 3 15 12 -16.3 154.1 40 55 symmetric - - symmetric - - Image
2013 3 15 18 -16.7 154.1 40 55 symmetric - - symmetric - - Image
2013 3 16 00 -16.9 154.0 35 50 symmetric - - symmetric - - Image
2013 3 16 06 -17.2 153.9 40 55 symmetric - - symmetric - - Image
2013 3 16 12 -17.6 153.7 40 55 symmetric - - symmetric - - Image
2013 3 16 18 -18.1 153.5 40 55 symmetric - - symmetric - - Image
2013 3 17 00 -18.5 153.3 35 50 symmetric - - symmetric - - Image
2013 3 17 06 -18.7 153.0 30 45 symmetric - - symmetric - - Image
2013 3 18 06 -19.2 151.9 25 45 symmetric - - symmetric - - Image
2013 3 19 06 -19.5 150.5 20 45 symmetric - - symmetric - - Image
2013 3 20 06 -18.1 148.0 20 45 symmetric - - symmetric - - Image
< Cyclone 201313 2013 Season Cyclone 201317 >

Help